Terminal Aerodrome Forecast
Issued by NWS Chicago, IL

Home | Current Version | Previous Version | Text Only | Print | Product List | Glossary On
Versions: 1 2 3 4 5 6 7 8 9 10 11 12 13 14 15 16 17 18 19 20 21 22 23 24 25 26
309
FTUS43 KLOT 091737
TAFRFD
TAF
KRFD 091737Z 0918/1018 33015G22KT 6SM -SHSN BKN025 BKN035
     FM100200 32013G20KT P6SM BKN035 OVC050
     FM101300 33012KT P6SM SCT020 BKN250=

USA.gov is the U.S. government's official web portal to all federal, state and local government web resources and services.